sensor_id;sensor_type;location;lat;lon;timestamp;pressure;altitude;pressure_sealevel;temperature;humidity
80566;BME280;69915;54.862;10.730;2023-10-19T00:00:45;100520.91;;;8.79;94.01
80566;BME280;69915;54.862;10.730;2023-10-19T00:03:13;100553.22;;;8.90;94.06
80566;BME280;69915;54.862;10.730;2023-10-19T00:05:39;100538.06;;;8.79;94.55
80566;BME280;69915;54.862;10.730;2023-10-19T00:08:07;100552.19;;;8.86;94.80
80566;BME280;69915;54.862;10.730;2023-10-19T00:10:54;100514.63;;;8.78;95.04
80566;BME280;69915;54.862;10.730;2023-10-19T00:13:30;100502.97;;;8.72;95.02
80566;BME280;69915;54.862;10.730;2023-10-19T00:15:56;100529.56;;;8.86;95.51
80566;BME280;69915;54.862;10.730;2023-10-19T00:18:24;100533.56;;;8.93;95.51
80566;BME280;69915;54.862;10.730;2023-10-19T00:20:51;100512.38;;;8.85;95.73
80566;BME280;69915;54.862;10.730;2023-10-19T00:23:22;100521.63;;;8.89;96.24
80566;BME280;69915;54.862;10.730;2023-10-19T00:26:01;100511.31;;;8.81;96.54
80566;BME280;69915;54.862;10.730;2023-10-19T00:28:42;100489.44;;;8.91;96.52
80566;BME280;69915;54.862;10.730;2023-10-19T00:31:11;100523.91;;;9.06;96.59
80566;BME280;69915;54.862;10.730;2023-10-19T00:33:37;100499.75;;;8.94;97.06
80566;BME280;69915;54.862;10.730;2023-10-19T00:36:05;100506.78;;;9.00;97.46
80566;BME280;69915;54.862;10.730;2023-10-19T00:38:34;100500.75;;;9.03;97.26
80566;BME280;69915;54.862;10.730;2023-10-19T00:41:00;100507.78;;;9.09;97.15
80566;BME280;69915;54.862;10.730;2023-10-19T00:43:33;100490.66;;;9.04;97.19
80566;BME280;69915;54.862;10.730;2023-10-19T00:46:03;100490.00;;;9.17;97.09
80566;BME280;69915;54.862;10.730;2023-10-19T00:48:33;100477.09;;;8.99;97.25
80566;BME280;69915;54.862;10.730;2023-10-19T00:51:00;100481.75;;;9.22;97.00
80566;BME280;69915;54.862;10.730;2023-10-19T00:53:37;100474.78;;;9.11;97.28
80566;BME280;69915;54.862;10.730;2023-10-19T00:56:04;100475.06;;;9.09;97.67
80566;BME280;69915;54.862;10.730;2023-10-19T00:58:32;100475.88;;;9.10;97.70
80566;BME280;69915;54.862;10.730;2023-10-19T01:01:02;100473.91;;;9.15;97.43
80566;BME280;69915;54.862;10.730;2023-10-19T01:03:31;100480.09;;;9.21;97.93
80566;BME280;69915;54.862;10.730;2023-10-19T01:06:04;100448.69;;;9.05;97.73
80566;BME280;69915;54.862;10.730;2023-10-19T01:08:38;100464.97;;;9.10;97.62
80566;BME280;69915;54.862;10.730;2023-10-19T01:11:09;100467.88;;;9.18;97.68
80566;BME280;69915;54.862;10.730;2023-10-19T01:13:41;100457.03;;;9.13;97.54
80566;BME280;69915;54.862;10.730;2023-10-19T01:16:16;100458.13;;;9.12;97.55
80566;BME280;69915;54.862;10.730;2023-10-19T01:18:52;100450.25;;;9.11;97.54
80566;BME280;69915;54.862;10.730;2023-10-19T01:21:25;100456.94;;;9.18;97.52
80566;BME280;69915;54.862;10.730;2023-10-19T01:24:01;100448.31;;;9.11;97.25
80566;BME280;69915;54.862;10.730;2023-10-19T01:26:30;100449.75;;;9.27;97.65
80566;BME280;69915;54.862;10.730;2023-10-19T01:28:56;100446.94;;;9.14;97.90
80566;BME280;69915;54.862;10.730;2023-10-19T01:31:26;100428.19;;;9.07;98.21
80566;BME280;69915;54.862;10.730;2023-10-19T01:33:58;100430.91;;;9.07;98.50
80566;BME280;69915;54.862;10.730;2023-10-19T01:36:25;100408.22;;;9.12;98.35
80566;BME280;69915;54.862;10.730;2023-10-19T01:38:54;100429.69;;;9.18;98.50
80566;BME280;69915;54.862;10.730;2023-10-19T01:41:22;100429.34;;;9.25;98.49
80566;BME280;69915;54.862;10.730;2023-10-19T01:43:51;100405.78;;;9.10;98.38
80566;BME280;69915;54.862;10.730;2023-10-19T01:46:21;100425.84;;;9.19;98.33
80566;BME280;69915;54.862;10.730;2023-10-19T01:48:48;100407.28;;;9.21;98.19
80566;BME280;69915;54.862;10.730;2023-10-19T01:51:22;100402.34;;;9.23;97.92
80566;BME280;69915;54.862;10.730;2023-10-19T01:53:48;100407.75;;;9.28;97.77
80566;BME280;69915;54.862;10.730;2023-10-19T01:56:16;100372.13;;;9.20;97.08
80566;BME280;69915;54.862;10.730;2023-10-19T01:58:43;100377.63;;;9.15;97.49
80566;BME280;69915;54.862;10.730;2023-10-19T02:01:13;100371.91;;;9.16;97.71
80566;BME280;69915;54.862;10.730;2023-10-19T02:03:42;100374.47;;;9.08;97.63
80566;BME280;69915;54.862;10.730;2023-10-19T02:06:13;100356.63;;;9.15;97.70
80566;BME280;69915;54.862;10.730;2023-10-19T02:08:50;100378.38;;;9.20;97.05
80566;BME280;69915;54.862;10.730;2023-10-19T02:11:19;100359.34;;;9.15;96.87
80566;BME280;69915;54.862;10.730;2023-10-19T02:13:46;100378.38;;;9.20;96.52
80566;BME280;69915;54.862;10.730;2023-10-19T02:16:13;100365.94;;;9.33;96.05
80566;BME280;69915;54.862;10.730;2023-10-19T02:18:41;100336.94;;;9.18;95.44
80566;BME280;69915;54.862;10.730;2023-10-19T02:21:07;100371.63;;;9.37;95.13
80566;BME280;69915;54.862;10.730;2023-10-19T02:23:33;100349.28;;;9.35;94.77
80566;BME280;69915;54.862;10.730;2023-10-19T02:26:01;100344.47;;;9.26;94.31
80566;BME280;69915;54.862;10.730;2023-10-19T02:28:29;100335.25;;;9.22;94.05
80566;BME280;69915;54.862;10.730;2023-10-19T02:30:58;100321.41;;;9.19;94.01
80566;BME280;69915;54.862;10.730;2023-10-19T02:33:35;100337.19;;;9.41;93.54
80566;BME280;69915;54.862;10.730;2023-10-19T02:36:01;100328.50;;;9.39;93.18
80566;BME280;69915;54.862;10.730;2023-10-19T02:38:29;100292.63;;;9.26;92.90
80566;BME280;69915;54.862;10.730;2023-10-19T02:40:55;100327.09;;;9.41;92.12
80566;BME280;69915;54.862;10.730;2023-10-19T02:43:21;100323.63;;;9.36;92.16
80566;BME280;69915;54.862;10.730;2023-10-19T02:45:49;100328.41;;;9.44;91.88
80566;BME280;69915;54.862;10.730;2023-10-19T02:48:14;100314.63;;;9.35;91.55
80566;BME280;69915;54.862;10.730;2023-10-19T02:50:41;100325.69;;;9.44;91.03
80566;BME280;69915;54.862;10.730;2023-10-19T02:53:06;100296.34;;;9.36;90.94
80566;BME280;69915;54.862;10.730;2023-10-19T02:55:32;100315.63;;;9.39;90.98
80566;BME280;69915;54.862;10.730;2023-10-19T02:57:57;100278.56;;;9.19;91.00
80566;BME280;69915;54.862;10.730;2023-10-19T03:00:24;100307.84;;;9.33;91.22
80566;BME280;69915;54.862;10.730;2023-10-19T03:02:58;100285.84;;;9.24;91.44
80566;BME280;69915;54.862;10.730;2023-10-19T03:05:25;100286.81;;;9.14;91.80
80566;BME280;69915;54.862;10.730;2023-10-19T03:07:51;100281.88;;;9.16;91.98
80566;BME280;69915;54.862;10.730;2023-10-19T03:10:17;100310.00;;;9.36;91.63
80566;BME280;69915;54.862;10.730;2023-10-19T03:12:51;100300.22;;;9.29;91.81
80566;BME280;69915;54.862;10.730;2023-10-19T03:15:19;100292.63;;;9.26;91.99
80566;BME280;69915;54.862;10.730;2023-10-19T03:17:46;100284.91;;;9.34;91.73
80566;BME280;69915;54.862;10.730;2023-10-19T03:20:12;100278.34;;;9.35;91.99
80566;BME280;69915;54.862;10.730;2023-10-19T03:22:37;100284.91;;;9.34;92.32
80566;BME280;69915;54.862;10.730;2023-10-19T03:25:07;100297.44;;;9.35;92.09
80566;BME280;69915;54.862;10.730;2023-10-19T03:27:59;100288.75;;;9.33;92.00
80566;BME280;69915;54.862;10.730;2023-10-19T03:30:32;100271.34;;;9.28;92.73
80566;BME280;69915;54.862;10.730;2023-10-19T03:33:06;100275.31;;;9.17;92.98
80566;BME280;69915;54.862;10.730;2023-10-19T03:35:36;100260.56;;;9.18;93.23
80566;BME280;69915;54.862;10.730;2023-10-19T03:38:02;100265.31;;;9.32;93.06
80566;BME280;69915;54.862;10.730;2023-10-19T03:40:34;100243.84;;;9.25;92.85
80566;BME280;69915;54.862;10.730;2023-10-19T03:43:03;100244.56;;;9.30;92.76
80566;BME280;69915;54.862;10.730;2023-10-19T03:45:41;100254.84;;;9.39;92.44
80566;BME280;69915;54.862;10.730;2023-10-19T03:48:18;100268.06;;;9.45;92.80
80566;BME280;69915;54.862;10.730;2023-10-19T03:50:50;100244.50;;;9.36;92.93
80566;BME280;69915;54.862;10.730;2023-10-19T03:53:17;100264.84;;;9.43;93.22
80566;BME280;69915;54.862;10.730;2023-10-19T03:55:43;100260.47;;;9.42;93.36
80566;BME280;69915;54.862;10.730;2023-10-19T03:58:09;100245.09;;;9.33;93.53
80566;BME280;69915;54.862;10.730;2023-10-19T04:00:34;100262.13;;;9.43;93.41
80566;BME280;69915;54.862;10.730;2023-10-19T04:03:00;100258.28;;;9.44;93.43
80566;BME280;69915;54.862;10.730;2023-10-19T04:05:25;100252.47;;;9.51;93.02
80566;BME280;69915;54.862;10.730;2023-10-19T04:07:53;100263.38;;;9.51;93.19
80566;BME280;69915;54.862;10.730;2023-10-19T04:10:23;100251.66;;;9.50;92.89
80566;BME280;69915;54.862;10.730;2023-10-19T04:12:55;100235.66;;;9.44;93.30
80566;BME280;69915;54.862;10.730;2023-10-19T04:15:21;100241.19;;;9.39;93.50
80566;BME280;69915;54.862;10.730;2023-10-19T04:17:48;100256.28;;;9.50;93.64
80566;BME280;69915;54.862;10.730;2023-10-19T04:20:18;100262.25;;;9.52;93.84
80566;BME280;69915;54.862;10.730;2023-10-19T04:22:48;100247.78;;;9.51;93.84
80566;BME280;69915;54.862;10.730;2023-10-19T04:25:16;100256.28;;;9.50;94.37
80566;BME280;69915;54.862;10.730;2023-10-19T04:27:42;100242.41;;;9.46;93.92
80566;BME280;69915;54.862;10.730;2023-10-19T04:30:12;100224.13;;;9.47;93.69
80566;BME280;69915;54.862;10.730;2023-10-19T04:32:45;100214.19;;;9.37;94.21
80566;BME280;69915;54.862;10.730;2023-10-19T04:35:11;100248.53;;;9.57;94.32
80566;BME280;69915;54.862;10.730;2023-10-19T04:37:39;100239.09;;;9.49;94.31
80566;BME280;69915;54.862;10.730;2023-10-19T04:40:08;100223.63;;;9.45;94.25
80566;BME280;69915;54.862;10.730;2023-10-19T04:42:34;100240.94;;;9.54;94.24
80566;BME280;69915;54.862;10.730;2023-10-19T04:45:02;100230.09;;;9.49;94.50
80566;BME280;69915;54.862;10.730;2023-10-19T04:47:27;100223.53;;;9.50;94.54
80566;BME280;69915;54.862;10.730;2023-10-19T04:49:53;100231.03;;;9.58;94.54
80566;BME280;69915;54.862;10.730;2023-10-19T04:52:18;100225.06;;;9.56;94.33
80566;BME280;69915;54.862;10.730;2023-10-19T04:54:44;100215.84;;;9.52;94.32
80566;BME280;69915;54.862;10.730;2023-10-19T04:57:09;100224.69;;;9.62;93.96
80566;BME280;69915;54.862;10.730;2023-10-19T04:59:36;100209.41;;;9.48;93.94
80566;BME280;69915;54.862;10.730;2023-10-19T05:02:01;100236.50;;;9.58;94.16
80566;BME280;69915;54.862;10.730;2023-10-19T05:04:28;100202.75;;;9.54;93.94
80566;BME280;69915;54.862;10.730;2023-10-19T05:06:54;100212.03;;;9.53;93.96
80566;BME280;69915;54.862;10.730;2023-10-19T05:09:20;100202.75;;;9.54;94.34
80566;BME280;69915;54.862;10.730;2023-10-19T05:11:46;100211.94;;;9.58;93.93
80566;BME280;69915;54.862;10.730;2023-10-19T05:14:12;100200.94;;;9.63;93.74
80566;BME280;69915;54.862;10.730;2023-10-19T05:16:39;100193.44;;;9.55;93.49
80566;BME280;69915;54.862;10.730;2023-10-19T05:19:05;100193.16;;;9.56;93.68
80566;BME280;69915;54.862;10.730;2023-10-19T05:21:30;100192.06;;;9.71;93.25
80566;BME280;69915;54.862;10.730;2023-10-19T05:23:56;100183.44;;;9.64;93.09
80566;BME280;69915;54.862;10.730;2023-10-19T05:26:22;100182.34;;;9.65;93.19
80566;BME280;69915;54.862;10.730;2023-10-19T05:28:48;100188.81;;;9.69;92.81
80566;BME280;69915;54.862;10.730;2023-10-19T05:31:13;100188.63;;;9.79;92.47
80566;BME280;69915;54.862;10.730;2023-10-19T05:33:40;100194.41;;;9.77;92.27
80566;BME280;69915;54.862;10.730;2023-10-19T05:36:06;100178.84;;;9.78;91.78
80566;BME280;69915;54.862;10.730;2023-10-19T05:38:31;100158.50;;;9.70;91.81
80566;BME280;69915;54.862;10.730;2023-10-19T05:40:57;100185.81;;;9.84;91.63
80566;BME280;69915;54.862;10.730;2023-10-19T05:43:25;100155.88;;;9.79;91.43
80566;BME280;69915;54.862;10.730;2023-10-19T05:45:50;100163.16;;;9.83;90.71
80566;BME280;69915;54.862;10.730;2023-10-19T05:48:16;100165.56;;;9.85;90.95
80566;BME280;69915;54.862;10.730;2023-10-19T05:50:42;100187.22;;;9.81;90.80
80566;BME280;69915;54.862;10.730;2023-10-19T05:53:08;100169.22;;;9.80;91.16
80566;BME280;69915;54.862;10.730;2023-10-19T05:55:33;100159.19;;;9.76;91.42
80566;BME280;69915;54.862;10.730;2023-10-19T05:58:02;100140.91;;;9.63;91.29
80566;BME280;69915;54.862;10.730;2023-10-19T06:00:30;100168.41;;;9.80;91.24
80566;BME280;69915;54.862;10.730;2023-10-19T06:02:56;100135.22;;;9.73;90.63
80566;BME280;69915;54.862;10.730;2023-10-19T06:05:23;100147.56;;;9.70;90.72
80566;BME280;69915;54.862;10.730;2023-10-19T06:07:49;100162.13;;;9.79;90.72
80566;BME280;69915;54.862;10.730;2023-10-19T06:10:17;100144.13;;;9.78;90.32
80566;BME280;69915;54.862;10.730;2023-10-19T06:12:50;100123.50;;;9.72;90.81
80566;BME280;69915;54.862;10.730;2023-10-19T06:15:18;100130.19;;;9.80;90.43
80566;BME280;69915;54.862;10.730;2023-10-19T06:17:46;100139.91;;;9.86;90.45
80566;BME280;69915;54.862;10.730;2023-10-19T06:20:14;100141.00;;;9.85;90.33
80566;BME280;69915;54.862;10.730;2023-10-19T06:22:50;100128.16;;;9.85;89.47
80566;BME280;69915;54.862;10.730;2023-10-19T06:25:20;100140.63;;;9.78;89.57
80566;BME280;69915;54.862;10.730;2023-10-19T06:27:47;100141.53;;;9.87;88.85
80566;BME280;69915;54.862;10.730;2023-10-19T06:30:16;100138.19;;;9.90;88.76
80566;BME280;69915;54.862;10.730;2023-10-19T06:32:49;100096.63;;;9.79;88.70
80566;BME280;69915;54.862;10.730;2023-10-19T06:35:16;100111.72;;;9.91;87.89
80566;BME280;69915;54.862;10.730;2023-10-19T06:37:41;100102.06;;;9.79;88.53
80566;BME280;69915;54.862;10.730;2023-10-19T06:40:07;100100.06;;;9.85;87.99
80566;BME280;69915;54.862;10.730;2023-10-19T06:42:33;100087.31;;;9.94;88.13
80566;BME280;69915;54.862;10.730;2023-10-19T06:45:00;100085.31;;;9.86;88.20
80566;BME280;69915;54.862;10.730;2023-10-19T06:47:27;100100.88;;;9.99;87.61
80566;BME280;69915;54.862;10.730;2023-10-19T06:49:54;100103.09;;;9.97;87.69
80566;BME280;69915;54.862;10.730;2023-10-19T06:52:19;100111.19;;;10.02;86.91
80566;BME280;69915;54.862;10.730;2023-10-19T06:54:44;100108.16;;;9.90;87.52
80566;BME280;69915;54.862;10.730;2023-10-19T06:57:10;100106.94;;;9.96;87.61
80566;BME280;69915;54.862;10.730;2023-10-19T06:59:36;100083.38;;;9.87;86.67
80566;BME280;69915;54.862;10.730;2023-10-19T07:02:02;100089.66;;;9.87;86.82
80566;BME280;69915;54.862;10.730;2023-10-19T07:04:28;100087.13;;;9.91;86.84
80566;BME280;69915;54.862;10.730;2023-10-19T07:06:54;100109.75;;;9.91;86.42
80566;BME280;69915;54.862;10.730;2023-10-19T07:09:20;100099.25;;;9.98;86.61
80566;BME280;69915;54.862;10.730;2023-10-19T07:11:46;100115.03;;;10.01;86.85
80566;BME280;69915;54.862;10.730;2023-10-19T07:14:12;100156.50;;;10.03;86.77
80566;BME280;69915;54.862;10.730;2023-10-19T07:16:39;100101.88;;;9.90;86.75
80566;BME280;69915;54.862;10.730;2023-10-19T07:19:05;100154.38;;;10.00;86.34
80566;BME280;69915;54.862;10.730;2023-10-19T07:21:31;100124.53;;;10.04;85.97
80566;BME280;69915;54.862;10.730;2023-10-19T07:24:01;100143.34;;;10.05;86.25
80566;BME280;69915;54.862;10.730;2023-10-19T07:26:30;100132.72;;;10.04;86.44
80566;BME280;69915;54.862;10.730;2023-10-19T07:28:59;100129.41;;;9.93;85.78
80566;BME280;69915;54.862;10.730;2023-10-19T07:31:25;100121.28;;;9.88;86.18
80566;BME280;69915;54.862;10.730;2023-10-19T07:33:53;100133.03;;;10.02;86.43
80566;BME280;69915;54.862;10.730;2023-10-19T07:36:20;100118.06;;;10.00;86.55
80566;BME280;69915;54.862;10.730;2023-10-19T07:38:46;100127.66;;;9.97;86.43
80566;BME280;69915;54.862;10.730;2023-10-19T07:41:13;100145.47;;;10.08;86.99
80566;BME280;69915;54.862;10.730;2023-10-19T07:43:38;100150.00;;;10.13;86.54
80566;BME280;69915;54.862;10.730;2023-10-19T07:46:04;100134.56;;;10.08;86.41
80566;BME280;69915;54.862;10.730;2023-10-19T07:48:30;100142.56;;;10.18;86.13
80566;BME280;69915;54.862;10.730;2023-10-19T07:50:55;100162.19;;;10.20;86.60
80566;BME280;69915;54.862;10.730;2023-10-19T07:53:21;100146.59;;;10.07;87.00
80566;BME280;69915;54.862;10.730;2023-10-19T07:55:47;100155.59;;;10.21;86.91
80566;BME280;69915;54.862;10.730;2023-10-19T07:58:13;100139.94;;;10.13;87.34
80566;BME280;69915;54.862;10.730;2023-10-19T08:00:38;100161.59;;;10.23;87.23
80566;BME280;69915;54.862;10.730;2023-10-19T08:03:05;100138.00;;;10.27;86.28
80566;BME280;69915;54.862;10.730;2023-10-19T08:05:32;100131.00;;;10.21;85.88
80566;BME280;69915;54.862;10.730;2023-10-19T08:07:58;100147.72;;;10.33;86.14
80566;BME280;69915;54.862;10.730;2023-10-19T08:10:25;100150.75;;;10.32;85.93
80566;BME280;69915;54.862;10.730;2023-10-19T08:12:52;100136.47;;;10.21;86.11
80566;BME280;69915;54.862;10.730;2023-10-19T08:15:18;100151.03;;;10.30;86.45
80566;BME280;69915;54.862;10.730;2023-10-19T08:17:46;100153.06;;;10.25;86.72
80566;BME280;69915;54.862;10.730;2023-10-19T08:20:13;100141.44;;;10.19;85.77
80566;BME280;69915;54.862;10.730;2023-10-19T08:22:43;100173.50;;;10.27;86.38
80566;BME280;69915;54.862;10.730;2023-10-19T08:25:12;100175.13;;;10.28;85.86
80566;BME280;69915;54.862;10.730;2023-10-19T08:27:44;100166.44;;;10.26;86.28
80566;BME280;69915;54.862;10.730;2023-10-19T08:30:14;100161.38;;;10.20;86.34
80566;BME280;69915;54.862;10.730;2023-10-19T08:32:40;100165.34;;;10.14;86.64
80566;BME280;69915;54.862;10.730;2023-10-19T08:35:08;100169.25;;;10.21;86.77
80566;BME280;69915;54.862;10.730;2023-10-19T08:37:37;100174.66;;;10.26;86.51
80566;BME280;69915;54.862;10.730;2023-10-19T08:40:10;100178.38;;;10.30;86.67
80566;BME280;69915;54.862;10.730;2023-10-19T08:42:45;100171.50;;;10.33;86.62
80566;BME280;69915;54.862;10.730;2023-10-19T08:45:12;100138.44;;;10.21;85.41
80566;BME280;69915;54.862;10.730;2023-10-19T08:48:01;100159.16;;;10.35;84.92
80566;BME280;69915;54.862;10.730;2023-10-19T08:50:32;100155.13;;;10.33;85.33
80566;BME280;69915;54.862;10.730;2023-10-19T08:53:01;100137.63;;;10.20;85.17
80566;BME280;69915;54.862;10.730;2023-10-19T08:55:29;100158.13;;;10.31;84.90
80566;BME280;69915;54.862;10.730;2023-10-19T08:57:55;100177.19;;;10.36;85.06
80566;BME280;69915;54.862;10.730;2023-10-19T09:00:23;100154.72;;;10.40;84.95
80566;BME280;69915;54.862;10.730;2023-10-19T09:02:51;100163.00;;;10.34;84.85
80566;BME280;69915;54.862;10.730;2023-10-19T09:05:18;100164.50;;;10.41;85.10
80566;BME280;69915;54.862;10.730;2023-10-19T09:07:52;100155.50;;;10.40;84.89
80566;BME280;69915;54.862;10.730;2023-10-19T09:12:59;100166.13;;;10.42;84.28
80566;BME280;69915;54.862;10.730;2023-10-19T09:15:25;100148.63;;;10.43;83.71
80566;BME280;69915;54.862;10.730;2023-10-19T09:17:51;100165.81;;;10.43;83.24
80566;BME280;69915;54.862;10.730;2023-10-19T09:20:20;100136.59;;;10.30;83.19
80566;BME280;69915;54.862;10.730;2023-10-19T09:22:55;100160.25;;;10.34;83.82
80566;BME280;69915;54.862;10.730;2023-10-19T09:25:23;100160.16;;;10.40;84.39
80566;BME280;69915;54.862;10.730;2023-10-19T09:27:49;100136.28;;;10.31;83.98
80566;BME280;69915;54.862;10.730;2023-10-19T09:30:15;100152.97;;;10.44;84.12
80566;BME280;69915;54.862;10.730;2023-10-19T09:32:47;100161.34;;;10.47;83.40
80566;BME280;69915;54.862;10.730;2023-10-19T09:35:17;100129.19;;;10.44;83.18
80566;BME280;69915;54.862;10.730;2023-10-19T09:37:44;100142.34;;;10.42;83.33
80566;BME280;69915;54.862;10.730;2023-10-19T09:40:10;100148.50;;;10.48;83.08
80566;BME280;69915;54.862;10.730;2023-10-19T09:42:43;100147.69;;;10.47;83.79
80566;BME280;69915;54.862;10.730;2023-10-19T09:45:18;100163.41;;;10.42;83.34
80566;BME280;69915;54.862;10.730;2023-10-19T09:47:49;100152.97;;;10.44;83.47
80566;BME280;69915;54.862;10.730;2023-10-19T09:50:15;100140.63;;;10.32;83.88
80566;BME280;69915;54.862;10.730;2023-10-19T09:52:40;100155.13;;;10.33;83.78
80566;BME280;69915;54.862;10.730;2023-10-19T10:00:17;100144.75;;;10.44;83.45
80566;BME280;69915;54.862;10.730;2023-10-19T10:02:49;100142.34;;;10.42;83.53
80566;BME280;69915;54.862;10.730;2023-10-19T10:10:50;100148.19;;;10.49;83.53
80566;BME280;69915;54.862;10.730;2023-10-19T10:15:56;100126.56;;;10.39;82.25
80566;BME280;69915;54.862;10.730;2023-10-19T10:18:26;100141.03;;;10.40;82.54
80566;BME280;69915;54.862;10.730;2023-10-19T10:21:12;100156.91;;;10.51;82.84
80566;BME280;69915;54.862;10.730;2023-10-19T10:23:42;100135.25;;;10.41;83.18
80566;BME280;69915;54.862;10.730;2023-10-19T10:26:11;100143.53;;;10.50;82.71
80566;BME280;69915;54.862;10.730;2023-10-19T10:28:39;100133.88;;;10.30;82.82
80566;BME280;69915;54.862;10.730;2023-10-19T10:33:46;100146.19;;;10.27;83.56
80566;BME280;69915;54.862;10.730;2023-10-19T10:36:14;100151.66;;;10.27;84.32
80566;BME280;69915;54.862;10.730;2023-10-19T10:38:40;100156.75;;;10.20;84.17
80566;BME280;69915;54.862;10.730;2023-10-19T10:41:06;100134.56;;;10.08;84.82
80566;BME280;69915;54.862;10.730;2023-10-19T10:43:56;100151.88;;;10.17;84.60
80566;BME280;69915;54.862;10.730;2023-10-19T10:46:23;100154.28;;;10.19;85.56
80566;BME280;69915;54.862;10.730;2023-10-19T10:48:49;100130.81;;;10.04;85.85
80566;BME280;69915;54.862;10.730;2023-10-19T10:53:48;100111.91;;;10.21;84.49
80566;BME280;69915;54.862;10.730;2023-10-19T10:56:14;100117.19;;;10.18;85.47
80566;BME280;69915;54.862;10.730;2023-10-19T10:58:39;100112.41;;;10.23;84.51
80566;BME280;69915;54.862;10.730;2023-10-19T11:01:06;100121.84;;;10.17;86.10
80566;BME280;69915;54.862;10.730;2023-10-19T11:03:32;100091.56;;;10.00;85.02
80566;BME280;69915;54.862;10.730;2023-10-19T11:06:07;100104.81;;;9.93;86.26
80566;BME280;69915;54.862;10.730;2023-10-19T11:08:37;100108.13;;;10.04;86.58
80566;BME280;69915;54.862;10.730;2023-10-19T11:11:08;100113.59;;;10.04;86.47
80566;BME280;69915;54.862;10.730;2023-10-19T11:13:36;100141.91;;;9.94;87.50
80566;BME280;69915;54.862;10.730;2023-10-19T11:16:04;100135.06;;;9.83;88.11
80566;BME280;69915;54.862;10.730;2023-10-19T11:18:40;100152.75;;;9.72;89.24
80566;BME280;69915;54.862;10.730;2023-10-19T11:21:09;100132.72;;;9.63;90.40
80566;BME280;69915;54.862;10.730;2023-10-19T11:26:04;100143.09;;;9.61;92.05
80566;BME280;69915;54.862;10.730;2023-10-19T11:28:30;100118.66;;;9.56;91.37
80566;BME280;69915;54.862;10.730;2023-10-19T11:31:17;100122.06;;;9.48;91.26
80566;BME280;69915;54.862;10.730;2023-10-19T11:33:45;100115.88;;;9.28;91.19
80566;BME280;69915;54.862;10.730;2023-10-19T11:36:12;100099.56;;;9.23;91.36
80566;BME280;69915;54.862;10.730;2023-10-19T11:38:48;100102.50;;;9.13;92.23
80566;BME280;69915;54.862;10.730;2023-10-19T11:41:15;100109.88;;;9.26;92.29
80566;BME280;69915;54.862;10.730;2023-10-19T11:43:42;100092.63;;;9.31;92.69
80566;BME280;69915;54.862;10.730;2023-10-19T11:46:09;100078.81;;;9.09;94.08
80566;BME280;69915;54.862;10.730;2023-10-19T11:48:36;100095.84;;;9.19;94.36
80566;BME280;69915;54.862;10.730;2023-10-19T11:51:04;100085.78;;;9.01;94.06
80566;BME280;69915;54.862;10.730;2023-10-19T11:53:33;100072.16;;;9.01;95.11
80566;BME280;69915;54.862;10.730;2023-10-19T11:56:07;100079.13;;;9.07;92.97
80566;BME280;69915;54.862;10.730;2023-10-19T11:58:33;100072.31;;;8.91;94.42
80566;BME280;69915;54.862;10.730;2023-10-19T12:01:09;100074.88;;;9.01;94.52
80566;BME280;69915;54.862;10.730;2023-10-19T12:03:41;100080.13;;;8.98;95.79
80566;BME280;69915;54.862;10.730;2023-10-19T12:06:07;100061.31;;;8.96;96.00
80566;BME280;69915;54.862;10.730;2023-10-19T12:08:34;100071.84;;;9.03;96.37
80566;BME280;69915;54.862;10.730;2023-10-19T12:11:00;100073.69;;;9.07;96.70
80566;BME280;69915;54.862;10.730;2023-10-19T12:13:29;100063.38;;;9.04;97.47
80566;BME280;69915;54.862;10.730;2023-10-19T12:15:56;100074.03;;;9.19;97.14
80566;BME280;69915;54.862;10.730;2023-10-19T12:18:26;100052.28;;;9.14;97.75
80566;BME280;69915;54.862;10.730;2023-10-19T12:20:53;100062.13;;;9.29;97.00
80566;BME280;69915;54.862;10.730;2023-10-19T12:23:22;100065.94;;;9.28;96.38
80566;BME280;69915;54.862;10.730;2023-10-19T12:25:51;100061.59;;;9.27;95.88
80566;BME280;69915;54.862;10.730;2023-10-19T12:28:18;100054.59;;;9.21;96.40
80566;BME280;69915;54.862;10.730;2023-10-19T12:30:43;100060.19;;;9.29;97.32
80566;BME280;69915;54.862;10.730;2023-10-19T12:33:10;100036.06;;;9.23;97.91
80566;BME280;69915;54.862;10.730;2023-10-19T12:35:42;100055.16;;;9.37;98.46
80566;BME280;69915;54.862;10.730;2023-10-19T12:38:16;100048.09;;;9.36;99.04
80566;BME280;69915;54.862;10.730;2023-10-19T12:40:44;100043.25;;;9.33;98.94
80566;BME280;69915;54.862;10.730;2023-10-19T12:43:09;100018.34;;;9.20;99.53
80566;BME280;69915;54.862;10.730;2023-10-19T12:45:36;100016.22;;;9.17;99.95
80566;BME280;69915;54.862;10.730;2023-10-19T12:48:06;100021.06;;;9.20;100.00
80566;BME280;69915;54.862;10.730;2023-10-19T12:50:33;100029.78;;;9.22;100.00
80566;BME280;69915;54.862;10.730;2023-10-19T12:52:59;99998.16;;;9.08;100.00
80566;BME280;69915;54.862;10.730;2023-10-19T12:55:25;100025.44;;;9.21;100.00
80566;BME280;69915;54.862;10.730;2023-10-19T12:57:57;100022.69;;;9.21;100.00
80566;BME280;69915;54.862;10.730;2023-10-19T13:00:23;99987.63;;;9.01;100.00
80566;BME280;69915;54.862;10.730;2023-10-19T13:02:55;99954.91;;;9.01;100.00
80566;BME280;69915;54.862;10.730;2023-10-19T13:05:32;99989.47;;;9.19;100.00
80566;BME280;69915;54.862;10.730;2023-10-19T13:07:58;99988.16;;;9.17;100.00
80566;BME280;69915;54.862;10.730;2023-10-19T13:10:31;99997.25;;;9.26;100.00
80566;BME280;69915;54.862;10.730;2023-10-19T13:12:59;99975.91;;;9.14;100.00
80566;BME280;69915;54.862;10.730;2023-10-19T13:15:29;100000.38;;;9.19;100.00
80566;BME280;69915;54.862;10.730;2023-10-19T13:17:57;99963.69;;;9.12;100.00